Tiempo atmosférico en la estación meteorológica de La Vall de Boi, Lleida (1092 m.)



Fecha
DESCASC
Temp. máxima en grados centígrados (hora)
DESCASC
Temp. mínima en grados centígrados (hora)
DESCASC
Temp. media en grados centígrados
DESCASC
Racha de viento máxima en m/sg (hora)
DESCASC
Velocidad máxima media en intervalos de 10 minutos(hora)
DESCASC
Precipitaciones diarias en mm
DESCASC
Precipitaciones de 00:00 a 06:00 en mm
DESCASC
Precipitaciones de 06:00 a 12:00 en mm
DESCASC
Precipitaciones de 12:00 a 18:00 en mm
DESCASC
Precipitaciones de 18:00 a 24:00 en mm
DESCASC

Gráficas

Temp. máximas Temp. mínimas Temp. medias Precipitaciones Rachas de viento máximas Velocidades máximas media en intervalos de 10 minutos

Datos horarios

Fecha y hora oficial Temperatura (ºC) Velocidad del viento (km/h) Dirección del viento Racha (km/h) Dirección de racha Precipitación (mm) Presión (hPa) Tendencia (hPa) Humedad (%)
2019-06-15 23:00:00 11.9 0 Calma 3 Noroeste 0 -- -- 75
2019-06-15 22:00:00 14.3 0 Calma 5 Sudoeste 0 -- -- 65
2019-06-15 21:00:00 16.4 0 Calma 8 Sudoeste 0 -- -- 56
2019-06-15 20:00:00 18.7 0 Calma 21 Sudoeste 0 -- -- 49
2019-06-15 19:00:00 21.4 9 Sudoeste 22 Sudoeste 0 -- -- 40
2019-06-15 18:00:00 21.1 8 Sudoeste 22 Sudoeste 0 -- -- 40
2019-06-15 17:00:00 20.5 10 Oeste 27 Sudoeste 0 -- -- 40
2019-06-15 16:00:00 22.5 13 Sudoeste 26 Sudoeste 0 -- -- 42
2019-06-15 15:00:00 23.5 13 Sudoeste 28 Sudoeste 0 -- -- 35
2019-06-15 14:00:00 22.8 10 Sudoeste 22 Sudoeste 0 -- -- 38
2019-06-15 13:00:00 21.9 11 Sudoeste 24 Oeste 0 -- -- 36
2019-06-15 12:00:00 20.8 8 Sudoeste 19 Sudoeste 0 -- -- 39
2019-06-15 11:00:00 19.4 8 Sudoeste 21 Sudoeste 0 -- -- 50
2019-06-15 10:00:00 17.5 11 Oeste 21 Oeste 0 -- -- 64
2019-06-15 09:00:00 14.5 3 Sudeste 5 Sudeste 0 -- -- 80
2019-06-15 08:00:00 10.7 0 Calma 5 Norte 0 -- -- 95
2019-06-15 07:00:00 10 0 Calma 4 Sur 0 -- -- 94
2019-06-15 06:00:00 10.8 0 Calma 4 Nordeste 0 -- -- 90
2019-06-15 05:00:00 11.5 0 Calma 10 Sudoeste 0 -- -- 86
2019-06-15 04:00:00 11.8 6 Nordeste 30 Oeste 0 -- -- 81
2019-06-15 03:00:00 9.3 2 Noroeste 10 Sudeste 0 -- -- 95
2019-06-15 02:00:00 8.6 4 Noroeste 9 Noroeste 0 -- -- 94
2019-06-15 01:00:00 9.3 2 Norte 6 Sudeste 0 -- -- 90
2019-06-15 00:00:00 10.3 2 Este 6 Sudeste 0 -- -- 88
2019-06-14 23:00:00 11.6 0 Calma 5 Sudeste 0 -- -- 85
2019-06-14 22:00:00 13.5 2 Sudoeste 4 Sudeste 0 -- -- 78
2019-06-14 21:00:00 16.7 0 Calma 15 Oeste 0 -- -- 70
2019-06-14 20:00:00 19.4 5 Sudoeste 17 Oeste 0 -- -- 56
2019-06-14 19:00:00 20.7 8 Sudoeste 18 Oeste 0 -- -- 50
2019-06-14 18:00:00 21.1 8 Sudoeste 20 Sudoeste 0 -- -- 54
2019-06-14 17:00:00 21.2 5 Noroeste 22 Sudoeste 0 -- -- 52
2019-06-14 16:00:00 18.4 13 Sudoeste 28 Sudoeste 0 -- -- 68
2019-06-14 15:00:00 21.3 17 Sudoeste 33 Sudoeste 0 -- -- 57
2019-06-14 14:00:00 23.7 17 Sudoeste 27 Sudoeste 0 -- -- 47
2019-06-14 13:00:00 21.5 4 Sur 14 Sudoeste 0 -- -- 49
2019-06-14 12:00:00 21.6 8 Sudoeste 18 Oeste 0 -- -- 49
2019-06-14 11:00:00 20 8 Oeste 18 Sudoeste 0 -- -- 49
2019-06-14 10:00:00 16 5 Sudoeste 15 Sudoeste 0 -- -- 60
2019-06-14 09:00:00 13.1 9 Sudoeste 22 Sudoeste 0 -- -- 72
2019-06-14 08:00:00 10.8 6 Sudoeste 15 Oeste 0 -- -- 81
2019-06-14 07:00:00 9.2 4 Norte 10 Noroeste 0 -- -- 86
2019-06-14 06:00:00 8.7 4 Noroeste 13 Noroeste 0 -- -- 86
2019-06-14 05:00:00 8 3 Norte 11 Sur 0 -- -- 92
2019-06-14 04:00:00 7.5 0 Calma 7 Sudeste 0 -- -- 93
2019-06-14 03:00:00 7.7 2 Nordeste 9 Noroeste 0 -- -- 90
2019-06-14 02:00:00 8.2 3 Norte 6 Norte 0 -- -- 91
2019-06-14 01:00:00 8.9 2 Este 6 Sudeste 0 -- -- 86
2019-06-14 00:00:00 10.4 2 Este 8 Sur 0 -- -- 83
2019-06-13 23:00:00 12.3 0 Calma 10 Sudoeste 0 -- -- 78
2019-06-13 22:00:00 14.4 4 Norte 14 Nordeste 0 -- -- 68
2019-06-13 21:00:00 17.3 2 Sudoeste 18 Sudoeste 0 -- -- 60
2019-06-13 20:00:00 19.5 11 Oeste 21 Oeste 0 -- -- 43
2019-06-13 19:00:00 20.7 9 Oeste 24 Sudoeste 0 -- -- 42
2019-06-13 18:00:00 21.2 8 Oeste 22 Sudoeste 0 -- -- 43
2019-06-13 17:00:00 21.7 11 Oeste 26 Sudoeste 0 -- -- 38
2019-06-13 16:00:00 21.1 7 Oeste 21 Sudoeste 0 -- -- 42
2019-06-13 15:00:00 21.4 12 Sudoeste 27 Sudoeste 0 -- -- 42
2019-06-13 14:00:00 20.4 11 Sudoeste 23 Sudoeste 0 -- -- 42
2019-06-13 13:00:00 17.6 7 Oeste 27 Sudoeste 0 -- -- 44
2019-06-13 12:00:00 16.2 8 Oeste 19 Sudoeste 0 -- -- 47
2019-06-13 11:00:00 13.5 4 Este 10 Este 0 -- -- 58
2019-06-13 10:00:00 10.4 0 Calma 5 Nordeste 0 -- -- 71
2019-06-13 09:00:00 8.1 0 Calma 6 Sudeste 0 -- -- 85
2019-06-13 08:00:00 6.2 0 Calma 5 Sur 0 -- -- 95
2019-06-13 07:00:00 4.8 0 Calma 5 Sudeste 0 -- -- 99
2019-06-13 06:00:00 4.2 0 Calma 4 Sudeste 0 -- -- 99
2019-06-13 05:00:00 3.5 0 Calma 4 Sur 0 -- -- 99
2019-06-13 04:00:00 2.7 0 Calma 3 Sudeste 0 -- -- 97
2019-06-13 03:00:00 2.8 0 Calma 3 Sudeste 0 -- -- 95
2019-06-13 02:00:00 3.4 0 Calma 3 Norte 0 -- -- 93
2019-06-13 01:00:00 3.9 0 Calma 4 Sudeste 0 -- -- 90
2019-06-13 00:00:00 4.9 0 Calma 6 Sudeste 0 -- -- 88
2019-06-12 23:00:00 6.2 0 Calma 4 Sudeste 0 -- -- 83
2019-06-12 22:00:00 8 0 Calma 9 Sudoeste 0 -- -- 77
2019-06-12 21:00:00 10.5 0 Calma 5 Sudoeste 0 -- -- 68
2019-06-12 20:00:00 13.8 2 Sudoeste 16 Sudoeste 0 -- -- 55
2019-06-12 19:00:00 15.9 10 Oeste 27 Sudoeste 0 -- -- 39
2019-06-12 18:00:00 16.7 10 Sudoeste 30 Sudoeste 0 -- -- 40
2019-06-12 17:00:00 16.3 9 Sudoeste 28 Oeste 0 -- -- 38
2019-06-12 16:00:00 17.4 12 Sudoeste 36 Sudoeste 0 -- -- 37
2019-06-12 15:00:00 16.4 14 Sudoeste 34 Sudoeste 0 -- -- 37
2019-06-12 14:00:00 16.2 11 Sudoeste 25 Sudoeste 0 -- -- 37
2019-06-12 13:00:00 15.4 9 Sudoeste 24 Oeste 0 -- -- 41
2019-06-12 12:00:00 14.2 12 Sudoeste 24 Oeste 0 -- -- 48
2019-06-12 11:00:00 12.6 8 Sudoeste 18 Sudoeste 0 -- -- 53
2019-06-12 10:00:00 9.6 7 Sur 14 Oeste 0 -- -- 71
2019-06-12 09:00:00 7.2 0 Calma 4 Sudeste 0 -- -- 81
2019-06-12 08:00:00 3.2 0 Calma 5 Sudeste 0 -- -- 100
2019-06-12 07:00:00 0.6 0 Calma 4 Este 0 -- -- 100
2019-06-12 06:00:00 0.8 0 Calma 3 Sudeste 0 -- -- 100
2019-06-12 05:00:00 0.8 0 Calma 5 Sur 0 -- -- 100
2019-06-12 04:00:00 0.7 0 Calma 5 Sudeste 0 -- -- 100
2019-06-12 03:00:00 1.2 0 Calma 6 Sur 0 -- -- 99
2019-06-12 02:00:00 1.7 0 Calma 8 Sudeste 0 -- -- 99
2019-06-12 01:00:00 2.3 2 Noroeste 5 Norte 0 -- -- 98
2019-06-12 00:00:00 3 0 Calma 5 Sur 0 -- -- 96
2019-06-11 23:00:00 4.1 0 Calma 5 Sudeste 0 -- -- 94
2019-06-11 22:00:00 5.7 0 Calma 5 Sur 0 -- -- 91
2019-06-11 21:00:00 8.3 2 Sudoeste 9 Norte 0 -- -- 86
2019-06-11 20:00:00 9.2 0 Calma 6 Oeste 0 -- -- 85
2019-06-11 19:00:00 10.5 4 Norte 14 Norte 0 -- -- 71
2019-06-11 18:00:00 7.9 4 Nordeste 21 Este 0 -- -- 83
2019-06-11 17:00:00 8.3 9 Sudeste 22 Este 0 -- -- 77
2019-06-11 16:00:00 10.7 8 Oeste 20 Sudoeste 0 -- -- 83
2019-06-11 15:00:00 10.9 11 Oeste 19 Sudoeste 0 -- -- 77
2019-06-11 14:00:00 10.2 9 Noroeste 17 Oeste 0 -- -- 77
2019-06-11 13:00:00 9.4 8 Oeste 17 Oeste 0 -- -- 85
2019-06-11 12:00:00 8.7 7 Oeste 15 Oeste 0 -- -- 93
2019-06-11 11:00:00 7.8 2 Este 11 Sudoeste 0 -- -- 95
2019-06-11 10:00:00 7.2 6 Sudoeste 14 Sudoeste 0 -- -- 94
2019-06-11 09:00:00 7.1 2 Sudoeste 6 Nordeste 0 -- -- 95
2019-06-11 08:00:00 6.6 3 Oeste 9 Sudoeste 0 -- -- 95
2019-06-11 07:00:00 6.4 2 Sudoeste 5 Sur 0 -- -- 96
2019-06-11 06:00:00 6.5 0 Calma 4 Noroeste 0 -- -- 96
2019-06-11 05:00:00 6.6 0 Calma 5 Noroeste 0 -- -- 94
2019-06-11 04:00:00 7 4 Norte 18 Noroeste 0 -- -- 84
2019-06-11 03:00:00 8 3 Sudoeste 10 Norte 0 -- -- 90
2019-06-11 02:00:00 9.2 3 Noroeste 32 Oeste 0 -- -- 80
2019-06-11 01:00:00 9.3 4 Nordeste 8 Nordeste 0 -- -- 75
2019-06-11 00:00:00 8.8 0 Calma 5 Sudoeste 0 -- -- 81
2019-06-10 23:00:00 10 0 Calma 5 Sudeste 0 -- -- 76
2019-06-10 22:00:00 12.5 0 Calma 6 Oeste 0 -- -- 69
2019-06-10 21:00:00 14.8 2 Sudoeste 9 Noroeste 0 -- -- 68
2019-06-10 20:00:00 16.8 3 Noroeste 12 Oeste 0 -- -- 51
2019-06-10 19:00:00 17.2 0 Calma 4 Noroeste 0 -- -- 55
2019-06-10 18:00:00 16.6 3 Este 25 Sudoeste 0 -- -- 53
2019-06-10 17:00:00 17.7 14 Sudoeste 32 Sur 0 -- -- 48
2019-06-10 16:00:00 20 14 Sudoeste 33 Sudoeste 0 -- -- 44
2019-06-10 15:00:00 20.5 14 Sudoeste 30 Oeste 0 -- -- 47
2019-06-10 14:00:00 22 15 Sudoeste 30 Sudoeste 0 -- -- 45
2019-06-10 13:00:00 21.6 13 Sudoeste 25 Oeste 0 -- -- 47
2019-06-10 12:00:00 20 15 Sudoeste 24 Sudoeste 0 -- -- 51
2019-06-10 11:00:00 16.6 12 Sudoeste 21 Sudoeste 0 -- -- 63
2019-06-10 10:00:00 15.6 12 Oeste 26 Oeste 0 -- -- 69
2019-06-10 09:00:00 13.9 2 Este 5 Este 0 -- -- 80
2019-06-10 08:00:00 10 2 Norte 10 Nordeste 0 -- -- 97
2019-06-10 07:00:00 9.2 0 Calma 5 Sudeste 0 -- -- 97
2019-06-10 06:00:00 8.6 0 Calma 4 Sudeste 0 -- -- 94
2019-06-10 05:00:00 9.3 0 Calma 4 Sudeste 0 -- -- 94
2019-06-10 04:00:00 9.5 0 Calma 3 Sur 0 -- -- 93
2019-06-10 03:00:00 10.4 0 Calma 5 Sudeste 0 -- -- 90
2019-06-10 02:00:00 11.4 0 Calma 4 Nordeste 0 -- -- 88
2019-06-10 01:00:00 12.4 3 Norte 8 Sudoeste 0 -- -- 86
2019-06-10 00:00:00 13.4 0 Calma 4 Oeste 0 -- -- 82
2019-06-09 23:00:00 14.4 0 Calma 4 Sur 0 -- -- 79
2019-06-09 22:00:00 16.1 0 Calma 3 Sudoeste 0 -- -- 73
2019-06-09 21:00:00 18.9 0 Calma 3 Oeste 0 -- -- 67
2019-06-09 20:00:00 21.2 2 Oeste 5 Sudoeste 0 -- -- 55
2019-06-09 19:00:00 21.8 3 Sudoeste 15 Oeste 0 -- -- 52
2019-06-09 18:00:00 23.9 10 Sudoeste 19 Sudoeste 0 -- -- 40
2019-06-09 17:00:00 25.2 9 Sudoeste 22 Sudoeste 0 -- -- 39
2019-06-09 16:00:00 24.9 8 Oeste 23 Sudoeste 0 -- -- 38
2019-06-09 15:00:00 24.5 11 Sudoeste 23 Sudoeste 0 -- -- 37
2019-06-09 14:00:00 24.2 10 Sudoeste 22 Sudoeste 0 -- -- 42
2019-06-09 13:00:00 22.2 12 Sudoeste 24 Sudoeste 0 -- -- 45
2019-06-09 12:00:00 21 13 Sudoeste 25 Sudoeste 0 -- -- 51
2019-06-09 11:00:00 18.1 9 Sudoeste 19 Oeste 0 -- -- 65
2019-06-09 10:00:00 15.2 2 Sur 8 Sur 0 -- -- 79
2019-06-09 09:00:00 12.3 2 Nordeste 6 Sur 0 -- -- 94
2019-06-09 08:00:00 11.2 3 Noroeste 7 Sur 0 -- -- 99
2019-06-09 07:00:00 11 0 Calma 8 Este 0 -- -- 97
2019-06-09 06:00:00 11.4 0 Calma 8 Nordeste 0 -- -- 97
2019-06-09 05:00:00 11.6 3 Este 9 Sur 0 -- -- 96
2019-06-09 04:00:00 11.7 3 Noroeste 9 Nordeste 0 -- -- 97
2019-06-09 03:00:00 11.6 3 Oeste 11 Este 0 -- -- 96
2019-06-09 02:00:00 11.6 4 Oeste 8 Sudeste 0 -- -- 94
2019-06-09 01:00:00 12.2 0 Calma 5 Sur 0 -- -- 90
2019-06-09 00:00:00 13.4 4 Este 8 Oeste 0 -- -- 85
2019-06-08 23:00:00 15.2 4 Sudoeste 14 Sudoeste 0 -- -- 76
2019-06-08 22:00:00 17.1 3 Sudeste 20 Oeste 0 -- -- 59
2019-06-08 21:00:00 18.1 0 Calma 22 Oeste 0 -- -- 58
2019-06-08 20:00:00 19.5 7 Oeste 19 Sudoeste 0 -- -- 45
2019-06-08 19:00:00 20.8 9 Oeste 23 Oeste 0 -- -- 40
2019-06-08 18:00:00 22.7 12 Sudoeste 26 Oeste 0 -- -- 35
2019-06-08 17:00:00 23.5 13 Sudoeste 23 Sudoeste 0 -- -- 34
2019-06-08 16:00:00 23.1 12 Sudoeste 24 Oeste 0 -- -- 34
2019-06-08 15:00:00 22 10 Oeste 22 Oeste 0 -- -- 31
2019-06-08 14:00:00 20.9 9 Sudoeste 24 Sudoeste 0 -- -- 36
2019-06-08 13:00:00 19.7 13 Sudoeste 27 Sudoeste 0 -- -- 39
2019-06-08 12:00:00 18.8 9 Sudoeste 15 Sudoeste 0 -- -- 36
2019-06-08 11:00:00 15.1 3 Sudoeste 7 Oeste 0 -- -- 44
2019-06-08 10:00:00 12.3 3 Sudeste 12 Sudoeste 0 -- -- 55
2019-06-08 09:00:00 10 2 Este 5 Este 0 -- -- 64
2019-06-08 08:00:00 4.4 0 Calma 7 Sudeste 0 -- -- 97
2019-06-08 07:00:00 1.4 0 Calma 4 Sudeste 0 -- -- 96
2019-06-08 06:00:00 1.7 0 Calma 5 Sudeste 0 -- -- 95
2019-06-08 05:00:00 2 2 Noroeste 6 Sudeste 0 -- -- 93
2019-06-08 04:00:00 2.6 2 Norte 5 Sudeste 0 -- -- 92
2019-06-08 03:00:00 3.2 0 Calma 8 Sudeste 0 -- -- 89
2019-06-08 02:00:00 3.9 0 Calma 6 Sudeste 0 -- -- 88
2019-06-08 01:00:00 4.8 0 Calma 4 Sudeste 0 -- -- 86
2019-06-08 00:00:00 5.9 0 Calma 4 Norte 0 -- -- 81
2019-06-07 23:00:00 7.6 2 Sudoeste 6 Norte 0 -- -- 76
2019-06-07 22:00:00 9.7 0 Calma 9 Sudoeste 0 -- -- 68
2019-06-07 21:00:00 12.2 4 Sudoeste 9 Oeste 0 -- -- 63
2019-06-07 20:00:00 15.1 6 Oeste 15 Sudoeste 0 -- -- 51
2019-06-07 19:00:00 18 8 Oeste 22 Oeste 0 -- -- 38
2019-06-07 18:00:00 18.6 12 Sudoeste 26 Oeste 0 -- -- 37
2019-06-07 17:00:00 19.3 12 Sudoeste 26 Sudoeste 0 -- -- 34
2019-06-07 16:00:00 19.4 10 Sudoeste 24 Sudoeste 0 -- -- 37
2019-06-07 15:00:00 18.5 10 Oeste 25 Sudoeste 0 -- -- 29
2019-06-07 14:00:00 17.3 14 Sudoeste 27 Sudoeste 0 -- -- 44
2019-06-07 13:00:00 15.7 10 Sudoeste 29 Sudoeste 0 -- -- 54
2019-06-07 12:00:00 12.2 8 Oeste 24 Sudoeste 0 -- -- 77
2019-06-07 11:00:00 10.8 14 Oeste 34 Oeste 0 -- -- 88
2019-06-07 10:00:00 11.5 6 Oeste 22 Oeste 0 -- -- 74
2019-06-07 09:00:00 10.6 2 Sudoeste 6 Oeste 0 -- -- 79
2019-06-07 08:00:00 9.9 0 Calma 9 Oeste 0 -- -- 80
2019-06-07 07:00:00 9.9 3 Sur 15 Oeste 0.2 -- -- 74
2019-06-07 06:00:00 10.1 8 Oeste 18 Oeste 0 -- -- 71
2019-06-07 05:00:00 10 6 Sudoeste 12 Sudoeste 0 -- -- 73
2019-06-07 04:00:00 10.4 8 Sudoeste 15 Sudoeste 0 -- -- 71
2019-06-07 03:00:00 10.3 3 Nordeste 14 Sudoeste 0 -- -- 71
2019-06-07 02:00:00 10.6 9 Sudoeste 20 Sudoeste 0 -- -- 70
2019-06-07 01:00:00 11.2 10 Sudoeste 22 Oeste 0 -- -- 66
2019-06-07 00:00:00 13.4 15 Oeste 27 Oeste 0 -- -- 51
2019-06-06 23:00:00 13.1 11 Oeste 21 Sudoeste 0 -- -- 53
2019-06-06 22:00:00 13.6 12 Oeste 24 Oeste 0 -- -- 52
2019-06-06 21:00:00 14.4 12 Oeste 31 Oeste 0 -- -- 54
2019-06-06 20:00:00 15.2 11 Oeste 30 Sudoeste 0 -- -- 57
2019-06-06 19:00:00 15.8 13 Oeste 30 Sudoeste 0 -- -- 55
2019-06-06 18:00:00 16.7 13 Oeste 28 Noroeste 0 -- -- 43
2019-06-06 17:00:00 17.5 14 Oeste 31 Oeste 0 -- -- 39
2019-06-06 16:00:00 18.7 13 Oeste 33 Oeste 0 -- -- 35
2019-06-06 15:00:00 18.7 17 Oeste 36 Oeste 0.2 -- -- 37
2019-06-06 14:00:00 17.3 16 Sudoeste 28 Oeste 0 -- -- 42
2019-06-06 13:00:00 16.4 13 Oeste 29 Sudoeste 0 -- -- 47
2019-06-06 12:00:00 16.5 12 Sudoeste 24 Sudoeste 0 -- -- 48
2019-06-06 11:00:00 15.6 11 Sudoeste 19 Sudoeste 0 -- -- 50
2019-06-06 10:00:00 10.7 3 Sur 10 Sudoeste 0.2 -- -- 70
2019-06-06 09:00:00 6.9 0 Calma 3 Sudeste 0 -- -- 99
2019-06-06 08:00:00 4.2 0 Calma 3 Sudeste 0 -- -- 100
2019-06-06 07:00:00 2.8 0 Calma 4 Sudeste 0 -- -- 99
2019-06-06 06:00:00 2.9 0 Calma 5 Sur 0 -- -- 98
2019-06-06 05:00:00 3.4 0 Calma 4 Noroeste 0.2 -- -- 97
2019-06-06 04:00:00 4.2 0 Calma 5 Noroeste 0 -- -- 97
2019-06-06 03:00:00 3.9 2 Noroeste 4 Noroeste 0 -- -- 97
2019-06-06 02:00:00 4.1 0 Calma 6 Sudeste 0 -- -- 94
2019-06-06 01:00:00 4.9 0 Calma 5 Sur 0.2 -- -- 92
2019-06-06 00:00:00 6.1 0 Calma 7 Sudoeste 0 -- -- 86
2019-06-05 23:00:00 8.8 3 Noroeste 19 Este 0 -- -- 73
2019-06-05 22:00:00 9.9 4 Nordeste 23 Este 0.2 -- -- 62
2019-06-05 21:00:00 10.8 9 Nordeste 27 Norte 0 -- -- 55
2019-06-05 20:00:00 11.9 11 Nordeste 31 Norte 0.2 -- -- 53
2019-06-05 19:00:00 14.1 10 Nordeste 31 Nordeste 0 -- -- 51
2019-06-05 18:00:00 13.5 3 Oeste 17 Norte 0.2 -- -- 75
2019-06-05 17:00:00 13 8 Norte 28 Sudoeste 0.4 -- -- 75
2019-06-05 16:00:00 14.3 4 Nordeste 16 Oeste 0.4 -- -- 63
2019-06-05 15:00:00 13 6 Oeste 19 Oeste 0.4 -- -- 80
2019-06-05 14:00:00 12 10 Oeste 33 Sudoeste 0.6 -- -- 89
2019-06-05 13:00:00 11.8 4 Oeste 14 Sudoeste 0.6 -- -- 89
2019-06-05 12:00:00 14.2 12 Oeste 28 Oeste 0 -- -- 67
2019-06-05 11:00:00 15.4 10 Sudoeste 27 Oeste 0 -- -- 48
2019-06-05 10:00:00 17.4 13 Sudoeste 25 Sudoeste 0 -- -- 41
2019-06-05 09:00:00 14.9 12 Sudoeste 19 Sudoeste 0 -- -- 49
2019-06-05 08:00:00 12.1 3 Sudeste 8 Sur 0 -- -- 68
2019-06-05 07:00:00 11.8 0 Calma 6 Norte 0 -- -- 67
2019-06-05 06:00:00 12.6 0 Calma 5 Este 0 -- -- 64
2019-06-05 05:00:00 15.1 2 Sur 18 Oeste 0 -- -- 45
2019-06-05 04:00:00 15.6 7 Oeste 18 Sudoeste 0 -- -- 40
2019-06-05 03:00:00 16.8 8 Sudoeste 22 Oeste 0 -- -- 42
2019-06-05 02:00:00 19.1 10 Oeste 19 Sudoeste 0 -- -- 33
2019-06-05 01:00:00 18.8 8 Oeste 14 Oeste 0 -- -- 39
2019-06-05 00:00:00 17.6 6 Sudoeste 18 Oeste 0 -- -- 51
2019-06-04 23:00:00 16.9 8 Oeste 18 Oeste 0 -- -- 49
2019-06-04 22:00:00 17.2 3 Sur 10 Noroeste 0 -- -- 58
2019-06-04 21:00:00 21.2 3 Nordeste 22 Oeste 0 -- -- 43
2019-06-04 20:00:00 23.1 12 Oeste 24 Oeste 0 -- -- 35
2019-06-04 19:00:00 25 10 Oeste 36 Oeste 0 -- -- 34
2019-06-04 18:00:00 25 10 Oeste 27 Oeste 0 -- -- 30
2019-06-04 17:00:00 26.8 13 Sudoeste 30 Sudoeste 0 -- -- 28
2019-06-04 16:00:00 27.2 12 Sudoeste 31 Sudoeste 0 -- -- 33
2019-06-04 15:00:00 26.7 12 Sudoeste 31 Sudoeste 0 -- -- 33
2019-06-04 14:00:00 25.8 13 Oeste 27 Sudoeste 0 -- -- 32
2019-06-04 13:00:00 25.9 12 Sudoeste 23 Oeste 0 -- -- 37
2019-06-04 12:00:00 24.3 12 Sudoeste 25 Sudoeste 0 -- -- 40
2019-06-04 11:00:00 21.5 13 Oeste 22 Oeste 0 -- -- 48
2019-06-04 10:00:00 18.8 0 Calma 0 Calma 0 -- -- 56
2019-06-04 09:00:00 16.2 0 Calma 0 Calma 0 -- -- 67
2019-06-04 08:00:00 9.2 0 Calma 0 Calma 0 -- -- 93
2019-06-04 07:00:00 7.9 0 Calma 0 Calma 0 -- -- 93
2019-06-04 06:00:00 8.1 0 Calma 0 Calma 0 -- -- 92
2019-06-04 05:00:00 8.5 0 Calma 0 Calma 0 -- -- 91
2019-06-04 04:00:00 9.2 0 Calma 0 Calma 0 -- -- 88
2019-06-04 03:00:00 10 0 Calma 0 Calma 0 -- -- 87
2019-06-04 02:00:00 10.9 0 Calma 0 Calma 0 -- -- 84
2019-06-04 01:00:00 11.9 0 Calma 2 Nordeste 0 -- -- 80
2019-06-04 00:00:00 12.8 0 Calma 4 Sudeste 0 -- -- 76
2019-06-03 23:00:00 14.6 0 Calma 4 Este 0 -- -- 69
2019-06-03 22:00:00 16.9 2 Sur 5 Sudoeste 0 -- -- 63
2019-06-03 21:00:00 20.2 0 Calma 16 Oeste 0 -- -- 50
2019-06-03 20:00:00 23.5 8 Oeste 23 Oeste 0 -- -- 36
2019-06-03 19:00:00 25.6 13 Oeste 28 Oeste 0 -- -- 31
2019-06-03 18:00:00 27.1 8 Sudoeste 23 Sudoeste 0 -- -- 34
2019-06-03 17:00:00 27.1 10 Sudoeste 26 Sudoeste 0 -- -- 37
2019-06-03 16:00:00 27.5 10 Sudoeste 22 Sudoeste 0 -- -- 35
2019-06-03 15:00:00 25.4 14 Sudoeste 23 Sudoeste 0 -- -- 36
2019-06-03 14:00:00 25.2 10 Sudoeste 21 Sudoeste 0 -- -- 33
2019-06-03 13:00:00 25.5 9 Sudoeste 21 Sudoeste 0 -- -- 41
2019-06-03 12:00:00 22.1 13 Oeste 23 Oeste 0 -- -- 47
2019-06-03 11:00:00 21.7 9 Sudoeste 17 Sudoeste 0 -- -- 52
2019-06-03 10:00:00 20.2 0 Calma 5 Sudeste 0 -- -- 60
2019-06-03 09:00:00 14.5 0 Calma 5 Sudeste 0 -- -- 77
2019-06-03 08:00:00 12.1 0 Calma 6 Noroeste 0 -- -- 87
2019-06-03 07:00:00 10.5 3 Oeste 7 Sudeste 0 -- -- 91
2019-06-03 06:00:00 9.8 0 Calma 6 Sudeste 0 -- -- 90
2019-06-03 05:00:00 10 0 Calma 5 Sudeste 0 -- -- 89
2019-06-03 04:00:00 10.5 2 Sur 5 Sudeste 0 -- -- 87
2019-06-03 03:00:00 10.6 2 Este 5 Sudeste 0 -- -- 87
2019-06-03 02:00:00 11.2 0 Calma 4 Sur 0 -- -- 83
2019-06-03 01:00:00 12.4 0 Calma 4 Sudeste 0 -- -- 81
2019-06-03 00:00:00 13.8 0 Calma 4 Este 0 -- -- 77
2019-06-02 23:00:00 15.2 0 Calma 4 Sudeste 0 -- -- 74
2019-06-02 22:00:00 17.1 0 Calma 4 Sudeste 0 -- -- 70
2019-06-02 21:00:00 19.8 0 Calma 3 Sur 0 -- -- 62
2019-06-02 20:00:00 22.4 0 Calma 3 Este 0 -- -- 59
2019-06-02 19:00:00 24.5 2 Sudoeste 18 Sudoeste 0 -- -- 47
2019-06-02 18:00:00 25.6 7 Oeste 23 Sudoeste 0 -- -- 34
2019-06-02 17:00:00 27.2 12 Sudoeste 22 Sudoeste 0 -- -- 33
2019-06-02 16:00:00 27.2 14 Sudoeste 27 Sudoeste 0 -- -- 35
2019-06-02 15:00:00 28 15 Sudoeste 27 Sudoeste 0 -- -- 33
2019-06-02 14:00:00 27.3 14 Sudoeste 25 Sudoeste 0 -- -- 34
2019-06-02 13:00:00 26.4 14 Sudoeste 27 Sudoeste 0 -- -- 37
2019-06-02 12:00:00 24.8 12 Sudoeste 22 Sudoeste 0 -- -- 44
2019-06-02 11:00:00 21.8 3 Sur 8 Sudoeste 0 -- -- 53
2019-06-02 10:00:00 18.5 4 Norte 7 Noroeste 0 -- -- 57
2019-06-02 09:00:00 15.2 0 Calma 5 Sudeste 0 -- -- 72
2019-06-02 08:00:00 9.7 0 Calma 4 Sudeste 0 -- -- 96
2019-06-02 07:00:00 7.2 0 Calma 4 Sudeste 0 -- -- 95
2019-06-02 06:00:00 7.7 2 Este 4 Oeste 0 -- -- 95
2019-06-02 05:00:00 8.4 0 Calma 3 Norte 0 -- -- 94
2019-06-02 04:00:00 8.8 0 Calma 3 Este 0 -- -- 92
2019-06-02 03:00:00 9.5 0 Calma 3 Nordeste 0 -- -- 91
2019-06-02 02:00:00 10.2 0 Calma 3 Sudeste 0 -- -- 89
2019-06-02 01:00:00 11.2 0 Calma 4 Sudeste 0 -- -- 87
2019-06-02 00:00:00 12.3 0 Calma 5 Sudeste 0 -- -- 82
2019-06-01 23:00:00 13.8 0 Calma 5 Sudeste 0 -- -- 77
2019-06-01 22:00:00 16.1 0 Calma 4 Sur 0 -- -- 73
2019-06-01 21:00:00 19.4 0 Calma 7 Sudoeste 0 -- -- 64
2019-06-01 20:00:00 22.2 4 Sudoeste 14 Sudoeste 0 -- -- 55
2019-06-01 19:00:00 23.5 6 Oeste 23 Sudoeste 0 -- -- 45
2019-06-01 18:00:00 24.5 12 Sudoeste 24 Sudoeste 0 -- -- 42
2019-06-01 17:00:00 25.5 13 Sudoeste 24 Sudoeste 0 -- -- 39
2019-06-01 16:00:00 26.4 13 Sudoeste 28 Oeste 0 -- -- 41
2019-06-01 15:00:00 25.9 14 Sudoeste 30 Sudoeste 0 -- -- 41
2019-06-01 14:00:00 24.8 14 Sudoeste 28 Sudoeste 0 -- -- 42
2019-06-01 13:00:00 23.9 13 Sudoeste 24 Sudoeste 0 -- -- 45
2019-06-01 12:00:00 22.7 12 Sudoeste 23 Sudoeste 0 -- -- 45
2019-06-01 11:00:00 20.6 8 Sudoeste 15 Oeste 0 -- -- 48
2019-06-01 10:00:00 17.6 0 Calma 5 Este 0 -- -- 52
2019-06-01 09:00:00 13.6 2 Sudeste 4 Este 0 -- -- 67
2019-06-01 08:00:00 8.3 0 Calma 2 Este 0 -- -- 98
2019-06-01 07:00:00 5.6 0 Calma 2 Este 0 -- -- 96
2019-06-01 06:00:00 6 0 Calma 3 Noroeste 0 -- -- 94
2019-06-01 05:00:00 6.8 0 Calma 3 Sudeste 0 -- -- 94
2019-06-01 04:00:00 7.5 0 Calma 4 Norte 0 -- -- 93
2019-06-01 03:00:00 8.1 0 Calma 4 Sudeste 0 -- -- 90
2019-06-01 02:00:00 8.9 0 Calma 5 Sudeste 0 -- -- 90
2019-06-01 01:00:00 10.1 0 Calma 3 Oeste 0 -- -- 86
2019-06-01 00:00:00 11.3 0 Calma 5 Norte 0 -- -- 82
2019-05-31 23:00:00 13 0 Calma -- -- 0 -- -- 77
2019-05-31 22:00:00 15.8 0 Calma 7 Sudoeste 0 -- -- 67
2019-05-31 21:00:00 19.1 4 Oeste 13 Oeste 0 -- -- 56
2019-05-31 20:00:00 21.3 6 Oeste 18 Oeste 0 -- -- 46
2019-05-31 19:00:00 22.8 6 Oeste 24 Sudoeste 0 -- -- 43
2019-05-31 18:00:00 22.5 12 Sudoeste 29 Sudoeste 0 -- -- 44
2019-05-31 17:00:00 25 14 Sudoeste 29 Sudoeste 0 -- -- 39
2019-05-31 16:00:00 24.9 16 Sudoeste 32 Sudoeste 0 -- -- 36
2019-05-31 15:00:00 24.3 16 Sudoeste 31 Sudoeste 0 -- -- 39
2019-05-31 14:00:00 23.3 19 Sudoeste 31 Sudoeste 0 -- -- 35
2019-05-31 13:00:00 22.7 18 Sudoeste 32 Oeste 0 -- -- 36
2019-05-31 12:00:00 21.4 15 Sudoeste 28 Sudoeste 0 -- -- 40
2019-05-31 11:00:00 19.3 15 Oeste 25 Sudoeste 0 -- -- 41
2019-05-31 10:00:00 15.3 6 Oeste 10 Sudoeste 0 -- -- 45
2019-05-31 09:00:00 12.1 2 Sur 4 Sur 0 -- -- 55
2019-05-31 08:00:00 5.8 0 Calma 0 Calma 0 -- -- 85
2019-05-31 07:00:00 3.2 0 Calma 0 Calma 0 -- -- 89
2019-05-31 06:00:00 3.4 0 Calma 0 Calma 0 -- -- 90
2019-05-31 05:00:00 3.9 0 Calma 0 Calma 0 -- -- 86
2019-05-31 04:00:00 4.6 0 Calma 0 Calma 0 -- -- 84
2019-05-31 03:00:00 5.7 0 Calma 4 Sudeste 0 -- -- 81
2019-05-31 02:00:00 6.9 0 Calma 5 Norte 0 -- -- 77
2019-05-31 01:00:00 8.1 0 Calma 5 Sudeste 0 -- -- 74
2019-05-31 00:00:00 10.1 0 Calma 4 Sudeste 0 -- -- 68
2019-05-30 23:00:00 13.6 0 Calma 14 Este 0 -- -- 54
2019-05-30 22:00:00 16.1 5 Nordeste 15 Norte 0 -- -- 43
2019-05-30 21:00:00 18.3 8 Norte 23 Nordeste 0 -- -- 35
2019-05-30 20:00:00 19.6 6 Nordeste 22 Norte 0 -- -- 32
2019-05-30 19:00:00 21.5 8 Nordeste 27 Este 0 -- -- 30
2019-05-30 18:00:00 22.9 13 Nordeste 30 Este 0 -- -- 26
2019-05-30 17:00:00 23.1 16 Nordeste 34 Nordeste 0 -- -- 29
2019-05-30 16:00:00 23.5 14 Este 30 Este 0 -- -- 25
2019-05-30 15:00:00 23.3 17 Este 36 Este 0 -- -- 26
2019-05-30 14:00:00 22.4 17 Nordeste 41 Este 0 -- -- 26
2019-05-30 13:00:00 21.8 18 Nordeste 37 Nordeste 0 -- -- 27
2019-05-30 12:00:00 20.8 20 Nordeste 38 Nordeste 0 -- -- 28
2019-05-30 11:00:00 18.1 9 Sudoeste 32 Sudoeste 0 -- -- 47
2019-05-30 10:00:00 14.9 17 Sudoeste 28 Sudoeste 0 -- -- 49
2019-05-30 09:00:00 12.2 3 Sudeste 6 Sur 0 -- -- 60
2019-05-30 08:00:00 7.9 2 Este 4 Sudeste 0 -- -- 78
2019-05-30 07:00:00 6.2 2 Norte 8 Este 0 -- -- 78
2019-05-30 06:00:00 7.6 3 Sudoeste 14 Sudoeste 0 -- -- 70
2019-05-30 05:00:00 9.6 8 Sudoeste 34 Oeste 0 -- -- 61
2019-05-30 04:00:00 13.9 21 Este 45 Nordeste 0 -- -- 46
2019-05-30 03:00:00 11.9 10 Nordeste 22 Este 0 -- -- 52
2019-05-30 02:00:00 11 9 Nordeste 23 Este 0 -- -- 55
2019-05-30 01:00:00 11.9 9 Este 22 Nordeste 0 -- -- 50
2019-05-30 00:00:00 11.9 11 Nordeste 35 Norte 0 -- -- 49
2019-05-29 23:00:00 12.3 15 Nordeste 38 Nordeste 0 -- -- 47
2019-05-29 22:00:00 12.1 13 Nordeste 32 Norte 0 -- -- 48
2019-05-29 21:00:00 12.4 13 Norte 29 Nordeste 0 -- -- 46
2019-05-29 20:00:00 12.6 14 Norte 33 Nordeste 0 -- -- 44
2019-05-29 19:00:00 14.2 13 Nordeste 31 Norte 0 -- -- 40
2019-05-29 18:00:00 15.5 14 Nordeste 36 Nordeste 0 -- -- 37
2019-05-29 17:00:00 15.5 17 Nordeste 37 Nordeste 0 -- -- 35
2019-05-29 16:00:00 15.5 17 Nordeste 41 Nordeste 0 -- -- 37
2019-05-29 15:00:00 15.5 19 Este 41 Este 0 -- -- 35
2019-05-29 14:00:00 15.1 20 Este 45 Nordeste 0 -- -- 35
2019-05-29 13:00:00 14.6 22 Nordeste 42 Este 0 -- -- 32
2019-05-29 12:00:00 13.8 22 Nordeste 44 Este 0 -- -- 33
2019-05-29 11:00:00 12.7 18 Nordeste 34 Nordeste 0 -- -- 34
2019-05-29 10:00:00 12.6 16 Este 32 Este 0 -- -- 38
2019-05-29 09:00:00 11.7 8 Este 26 Nordeste 0 -- -- 43
2019-05-29 08:00:00 6.9 4 Este 13 Nordeste 0 -- -- 65
2019-05-29 07:00:00 6.2 5 Este 9 Este 0 -- -- 64
2019-05-29 06:00:00 8 3 Sur 22 Sudoeste 0 -- -- 60
2019-05-29 05:00:00 7.8 5 Este 27 Sur 0 -- -- 57
2019-05-29 04:00:00 8.1 5 Este 29 Norte 0 -- -- 55
2019-05-29 03:00:00 7.7 3 Sur 15 Nordeste 0 -- -- 59
2019-05-29 02:00:00 9.3 6 Norte 25 Sudeste 0 -- -- 48
2019-05-29 01:00:00 8.7 8 Sur 23 Sudeste 0 -- -- 53
2019-05-29 00:00:00 8.8 0 Calma 17 Nordeste 0 -- -- 60
2019-05-28 23:00:00 9.8 5 Nordeste 23 Nordeste 0 -- -- 51
2019-05-28 22:00:00 10.8 12 Oeste 26 Oeste 0 -- -- 44
2019-05-28 21:00:00 11.6 8 Este 67 Norte 0 -- -- 43
2019-05-28 20:00:00 13.4 6 Nordeste 33 Nordeste 0 -- -- 37
2019-05-28 19:00:00 14.5 18 Nordeste 36 Este 0 -- -- 37
2019-05-28 18:00:00 16.4 20 Nordeste 46 Este 0 -- -- 35
2019-05-28 17:00:00 17.6 19 Este 38 Nordeste 0 -- -- 35
2019-05-28 16:00:00 18.9 16 Este 32 Este 0 -- -- 32
2019-05-28 15:00:00 17.6 22 Este 40 Este 0 -- -- 37
2019-05-28 14:00:00 18.3 15 Este 31 Este 0 -- -- 36
2019-05-28 13:00:00 18.9 13 Este 25 Este 0 -- -- 32
2019-05-28 12:00:00 17.9 7 Nordeste 21 Este 0 -- -- 27
2019-05-28 11:00:00 17.1 8 Sudoeste 20 Oeste 0 -- -- 36
2019-05-28 10:00:00 14.1 8 Sudoeste 17 Sudoeste 0 -- -- 51
2019-05-28 09:00:00 11.6 3 Este 7 Sur 0 -- -- 53
2019-05-28 08:00:00 7.4 0 Calma 4 Sudeste 0 -- -- 74
2019-05-28 07:00:00 5.7 0 Calma 12 Oeste 0 -- -- 80
2019-05-28 06:00:00 5.1 3 Sudoeste 6 Sudeste 0 -- -- 84
2019-05-28 05:00:00 4.8 2 Sudoeste 8 Sudeste 0 -- -- 87
2019-05-28 04:00:00 5.9 0 Calma 4 Sudeste 0 -- -- 84
2019-05-28 03:00:00 7.5 0 Calma 6 Nordeste 0 -- -- 78
2019-05-28 02:00:00 9.1 2 Sudoeste 6 Sudeste 0 -- -- 72
2019-05-28 01:00:00 12 3 Nordeste 15 Nordeste 0 -- -- 59
2019-05-28 00:00:00 12.8 7 Nordeste 19 Nordeste 0 -- -- 55
2019-05-27 23:00:00 13.6 5 Nordeste 24 Este 0 -- -- 53
2019-05-27 22:00:00 14.3 9 Nordeste 29 Este 0 -- -- 53
2019-05-27 21:00:00 15 8 Nordeste 37 Este 0 -- -- 49
2019-05-27 20:00:00 15.5 8 Nordeste 32 Este 0 -- -- 51
2019-05-27 19:00:00 17.6 15 Nordeste 36 Nordeste 0 -- -- 46
2019-05-27 18:00:00 18.7 19 Este 40 Nordeste 0 -- -- 44
2019-05-27 17:00:00 19.3 22 Nordeste 37 Este 0 -- -- 42
2019-05-27 16:00:00 19.8 14 Nordeste 36 Este 0 -- -- 42
2019-05-27 15:00:00 20.4 17 Este 33 Este 0 -- -- 41
2019-05-27 14:00:00 20.9 11 Este 30 Nordeste 0 -- -- 34
2019-05-27 13:00:00 20.4 17 Nordeste 32 Nordeste 0 -- -- 36
2019-05-27 12:00:00 18.9 14 Sudoeste 28 Oeste 0 -- -- 46
2019-05-27 11:00:00 16.8 17 Oeste 28 Sudoeste 0 -- -- 47
2019-05-27 10:00:00 14.8 15 Oeste 26 Oeste 0 -- -- 53
2019-05-27 09:00:00 10.4 3 Sur 8 Sudeste 0 -- -- 73
2019-05-27 08:00:00 6.5 3 Este 8 Este 0 -- -- 87
2019-05-27 07:00:00 3.8 4 Norte 7 Sudeste 0 -- -- 95
2019-05-27 06:00:00 3.6 2 Nordeste 7 Sur 0 -- -- 94
2019-05-27 05:00:00 4.1 0 Calma 6 Sudeste 0 -- -- 92
2019-05-27 04:00:00 5.1 0 Calma 6 Sur 0 -- -- 87
2019-05-27 03:00:00 6.8 0 Calma 4 Oeste 0 -- -- 79
2019-05-27 02:00:00 9.1 2 Oeste 13 Sur 0 -- -- 67
2019-05-27 01:00:00 12.3 7 Este 47 Nordeste 0 -- -- 51
2019-05-27 00:00:00 13.7 20 Nordeste 42 Norte 0 -- -- 46
2019-05-26 23:00:00 11.9 6 Sudeste 29 Nordeste 0 -- -- 55
2019-05-26 22:00:00 13.4 12 Norte 32 Este 0 -- -- 44
2019-05-26 21:00:00 13.5 14 Nordeste 32 Nordeste 0 -- -- 44
2019-05-26 20:00:00 14.1 10 Nordeste 49 Este 0 -- -- 42
2019-05-26 19:00:00 15.1 24 Nordeste 49 Este 0 -- -- 40
2019-05-26 18:00:00 16.6 19 Nordeste 39 Este 0 -- -- 40
2019-05-26 17:00:00 16.8 18 Nordeste 36 Nordeste 0 -- -- 45
2019-05-26 16:00:00 16.6 22 Nordeste 39 Nordeste 0 -- -- 44
2019-05-26 15:00:00 17.3 16 Este 35 Nordeste 0 -- -- 43
2019-05-26 14:00:00 16.4 18 Este 32 Nordeste 0 -- -- 47
2019-05-26 13:00:00 16 21 Nordeste 41 Nordeste 0 -- -- 43
2019-05-26 12:00:00 16.7 15 Este 37 Nordeste 0 -- -- 41
2019-05-26 11:00:00 15.8 17 Nordeste 39 Este 0 -- -- 43
2019-05-26 10:00:00 14.9 21 Nordeste 39 Norte 0 -- -- 44
2019-05-26 09:00:00 13.6 16 Este 35 Este 0 -- -- 47
2019-05-26 08:00:00 11.6 13 Este 31 Este 0 -- -- 52
2019-05-26 07:00:00 9.9 11 Este 29 Nordeste 0 -- -- 56
2019-05-26 06:00:00 10.7 15 Nordeste 36 Este 0 -- -- 53
2019-05-26 05:00:00 10.2 8 Nordeste 21 Este 0 -- -- 58
2019-05-26 04:00:00 10 10 Este 21 Nordeste 0 -- -- 58
2019-05-26 03:00:00 9.9 9 Nordeste 18 Este 0 -- -- 60
2019-05-26 02:00:00 10 9 Nordeste 25 Nordeste 0 -- -- 61
2019-05-26 01:00:00 8.4 4 Nordeste 15 Sudoeste 0 -- -- 70
2019-05-26 00:00:00 11 9 Nordeste 22 Norte 0 -- -- 56
2019-05-25 23:00:00 12.2 12 Nordeste 27 Nordeste 0 -- -- 51
2019-05-25 22:00:00 12.1 8 Nordeste 27 Nordeste 0 -- -- 54
2019-05-25 21:00:00 12.7 11 Este 29 Nordeste 0 -- -- 53
2019-05-25 20:00:00 13.5 7 Nordeste 29 Este 0 -- -- 51
2019-05-25 19:00:00 14.6 12 Nordeste 32 Nordeste 0 -- -- 52
2019-05-25 18:00:00 15.6 17 Nordeste 41 Nordeste 0 -- -- 49
2019-05-25 17:00:00 16 19 Nordeste 37 Nordeste 0 -- -- 50
2019-05-25 16:00:00 16.5 18 Nordeste 44 Nordeste 0 -- -- 49
2019-05-25 15:00:00 16.6 15 Nordeste 30 Nordeste 0 -- -- 52
2019-05-25 14:00:00 16.3 12 Nordeste 31 Este 0 -- -- 48
2019-05-25 13:00:00 16.6 13 Este 33 Este 0 -- -- 47
2019-05-25 12:00:00 16.1 16 Este 32 Nordeste 0 -- -- 49
2019-05-25 11:00:00 15.3 12 Nordeste 31 Nordeste 0 -- -- 49
2019-05-25 10:00:00 14.6 12 Nordeste 24 Nordeste 0 -- -- 53
2019-05-25 09:00:00 13.4 8 Nordeste 18 Este 0.2 -- -- 55
2019-05-25 08:00:00 9 3 Oeste 13 Noroeste 0 -- -- 93
2019-05-25 07:00:00 8 3 Sudeste 11 Oeste 0 -- -- 96
2019-05-25 06:00:00 8.1 3 Sudoeste 9 Sudeste 0 -- -- 94
2019-05-25 05:00:00 8.4 2 Sudeste 7 Sudeste 0 -- -- 94
2019-05-25 04:00:00 8.4 3 Sudoeste 13 Sur 0 -- -- 92
2019-05-25 03:00:00 8.6 3 Sudoeste 13 Sudoeste 0 -- -- 89
2019-05-25 02:00:00 8.7 2 Sudoeste 10 Sudoeste 0 -- -- 90
2019-05-25 01:00:00 9.2 2 Noroeste 9 Sur 0 -- -- 89
2019-05-25 00:00:00 9.6 2 Oeste 10 Sur 0 -- -- 87
2019-05-24 23:00:00 10.1 0 Calma 6 Oeste 0 -- -- 84
2019-05-24 22:00:00 11.1 0 Calma 13 Nordeste 0 -- -- 78
2019-05-24 21:00:00 13.4 6 Nordeste 16 Nordeste 0 -- -- 55
2019-05-24 20:00:00 13.9 6 Nordeste 23 Nordeste 0 -- -- 54
2019-05-24 19:00:00 14.7 9 Nordeste 32 Este 0 -- -- 49
2019-05-24 18:00:00 15 13 Nordeste 28 Este 0 -- -- 49
2019-05-24 17:00:00 14.2 11 Nordeste 31 Nordeste 0 -- -- 50
2019-05-24 16:00:00 13.6 14 Nordeste 24 Nordeste 0 -- -- 55
2019-05-24 15:00:00 13 8 Oeste 19 Oeste 0 -- -- 77
2019-05-24 14:00:00 13 12 Oeste 22 Sudoeste 0 -- -- 79
2019-05-24 13:00:00 13 4 Sudoeste 11 Sudoeste 0 -- -- 79
2019-05-24 12:00:00 11.1 2 Sudeste 5 Sudeste 0 -- -- 89
2019-05-24 11:00:00 9.8 2 Sur 3 Sur 0 -- -- 96
2019-05-24 10:00:00 9.1 0 Calma 3 Sudeste 0.2 -- -- 95
2019-05-24 09:00:00 9.3 0 Calma 4 Sudeste 0 -- -- 97
2019-05-24 08:00:00 9.5 5 Nordeste 8 Nordeste 0 -- -- 95
2019-05-24 07:00:00 10.1 4 Sudoeste 14 Oeste 0 -- -- 99
2019-05-24 06:00:00 10.1 2 Nordeste 8 Nordeste 0 -- -- 99
2019-05-24 05:00:00 10.3 3 Sur 18 Oeste 0 -- -- 98
2019-05-24 04:00:00 9.8 2 Sudeste 5 Sudeste 0 -- -- 99
2019-05-24 03:00:00 9.7 0 Calma 8 Este 0 -- -- 98
2019-05-24 02:00:00 9.6 5 Este 8 Nordeste 0 -- -- 98
2019-05-24 01:00:00 10.3 3 Noroeste 7 Sur 0.2 -- -- 97
2019-05-24 00:00:00 10.9 2 Este 6 Sur 0 -- -- 97
2019-05-23 23:00:00 11.2 3 Norte 12 Norte 0 -- -- 94
2019-05-23 22:00:00 11.5 5 Nordeste 10 Sudeste 0.2 -- -- 94
2019-05-23 21:00:00 11.9 6 Noroeste 14 Nordeste 0.2 -- -- 88
2019-05-23 20:00:00 12.7 7 Este 17 Norte 0.2 -- -- 84
2019-05-23 19:00:00 15.2 14 Nordeste 44 Oeste 0.2 -- -- 67
2019-05-23 18:00:00 20.6 7 Sudoeste 22 Sudoeste 0 -- -- 43
2019-05-23 17:00:00 21.5 7 Sudoeste 14 Oeste 0 -- -- 41
2019-05-23 16:00:00 21.3 9 Sudoeste 27 Sudoeste 0 -- -- 39
2019-05-23 15:00:00 21.8 15 Sudoeste 25 Sudoeste 0 -- -- 39
2019-05-23 14:00:00 22.9 14 Sudoeste 25 Sudoeste 0 -- -- 35
2019-05-23 13:00:00 21.5 16 Sudoeste 29 Sudoeste 0 -- -- 38
2019-05-23 12:00:00 20.1 16 Oeste 24 Oeste 0 -- -- 39
2019-05-23 11:00:00 18.1 13 Oeste 21 Sudoeste 0 -- -- 45
2019-05-23 10:00:00 15.8 3 Sudeste 5 Sudeste 0 -- -- 55
2019-05-23 09:00:00 11.5 0 Calma 4 Este 0 -- -- 71
2019-05-23 08:00:00 6.1 0 Calma 3 Sudeste 0 -- -- 100
2019-05-23 07:00:00 4 3 Este 4 Sudeste 0 -- -- 95
2019-05-23 06:00:00 4.5 0 Calma 3 Este 0 -- -- 94
2019-05-23 05:00:00 5.1 0 Calma 3 Este 0 -- -- 93
2019-05-23 04:00:00 5.9 0 Calma 3 Norte 0 -- -- 92
2019-05-23 03:00:00 6.3 0 Calma 3 Norte 0 -- -- 91
2019-05-23 02:00:00 6.9 0 Calma 3 Norte 0 -- -- 88
2019-05-23 01:00:00 8 0 Calma 3 Oeste 0 -- -- 85
2019-05-23 00:00:00 9.5 0 Calma 4 Sudeste 0 -- -- 81
2019-05-22 23:00:00 11.4 0 Calma 4 Sur 0 -- -- 80
2019-05-22 22:00:00 13.6 0 Calma 3 Este 0 -- -- 73
2019-05-22 21:00:00 15.2 2 Sudoeste 8 Oeste 0 -- -- 65
2019-05-22 20:00:00 16.8 5 Sudoeste 19 Sudoeste 0 -- -- 53
2019-05-22 19:00:00 19 10 Sudoeste 25 Oeste 0 -- -- 46
2019-05-22 18:00:00 18.9 11 Sudoeste 24 Oeste 0 -- -- 42
2019-05-22 17:00:00 19 6 Sudoeste 20 Sudoeste 0 -- -- 40
2019-05-22 16:00:00 19.2 11 Oeste 19 Sudoeste 0 -- -- 41
2019-05-22 15:00:00 19 11 Sudoeste 27 Sudoeste 0 -- -- 44
2019-05-22 14:00:00 20.8 13 Sudoeste 29 Sudoeste 0 -- -- 40
2019-05-22 13:00:00 19.5 14 Sudoeste 26 Sudoeste 0 -- -- 44
2019-05-22 12:00:00 18.1 15 Sudoeste 28 Sudoeste 0 -- -- 46
2019-05-22 11:00:00 16.6 12 Sudoeste 19 Sudoeste 0 -- -- 48
2019-05-22 10:00:00 13.8 3 Sur 8 Sudoeste 0 -- -- 56
2019-05-22 09:00:00 10.8 2 Sudeste 5 Sudeste 0 -- -- 70
2019-05-22 08:00:00 5.8 0 Calma -- -- 0 -- -- 99
2019-05-22 07:00:00 3.6 0 Calma 2 Noroeste 0 -- -- 95
2019-05-22 06:00:00 4.1 0 Calma 3 Sudeste 0 -- -- 94
2019-05-22 05:00:00 5.1 0 Calma 3 Sur 0 -- -- 91
2019-05-22 04:00:00 6.4 0 Calma 4 Sudeste 0 -- -- 89
2019-05-22 03:00:00 7.8 0 Calma 3 Este 0 -- -- 87
2019-05-22 02:00:00 9.1 0 Calma 4 Este 0 -- -- 84
2019-05-22 01:00:00 9.2 0 Calma 7 Sudoeste 0 -- -- 84
2019-05-22 00:00:00 9.3 2 Norte 4 Norte 0 -- -- 82
2019-05-21 23:00:00 9.7 0 Calma 5 Noroeste 0 -- -- 78
2019-05-21 22:00:00 12 2 Nordeste 5 Sudoeste 0 -- -- 68
2019-05-21 21:00:00 14.4 2 Sudeste 11 Este 0 -- -- 59
2019-05-21 20:00:00 16.2 10 Este 19 Este 0 -- -- 45
2019-05-21 19:00:00 17.5 7 Oeste 18 Oeste 0 -- -- 41
2019-05-21 18:00:00 17.1 6 Sudoeste 18 Sudoeste 0 -- -- 41
2019-05-21 17:00:00 17.8 0 Calma 14 Sur 0 -- -- 36
2019-05-21 16:00:00 17.8 5 Sudoeste 19 Sudoeste 0.2 -- -- 37
2019-05-21 15:00:00 18.5 9 Sudoeste 22 Oeste 0 -- -- 36
2019-05-21 14:00:00 18.8 11 Sudoeste 23 Sudoeste 0 -- -- 36
2019-05-21 13:00:00 18.1 13 Sudoeste 23 Sudoeste 0 -- -- 36
2019-05-21 12:00:00 16.4 14 Sudoeste 24 Sudoeste 0 -- -- 45
2019-05-21 11:00:00 14.3 14 Oeste 21 Sudoeste 0 -- -- 52
2019-05-21 10:00:00 11.5 4 Sur 11 Sudoeste 0 -- -- 68
2019-05-21 09:00:00 8.4 0 Calma 5 Sudeste 0 -- -- 82
2019-05-21 08:00:00 3.4 0 Calma -- -- 0 -- -- 100
2019-05-21 07:00:00 2.1 0 Calma -- -- 0 -- -- 100
2019-05-21 06:00:00 2.5 0 Calma 4 Sudeste 0.2 -- -- 99
2019-05-21 05:00:00 3.3 0 Calma 3 Sudeste 0 -- -- 99
2019-05-21 04:00:00 3.9 0 Calma 3 Sudeste 0 -- -- 99
2019-05-21 03:00:00 4.2 0 Calma 4 Sudeste 0 -- -- 96
2019-05-21 02:00:00 5.3 0 Calma 3 Este 0 -- -- 94
2019-05-21 01:00:00 7 3 Este 5 Sudeste 0.2 -- -- 91
2019-05-21 00:00:00 8.5 3 Oeste 12 Este 0 -- -- 89
2019-05-20 23:00:00 9.5 4 Sudoeste 18 Norte 0 -- -- 84
2019-05-20 22:00:00 10.7 6 Norte 18 Este 0.2 -- -- 66
2019-05-20 21:00:00 11.1 6 Nordeste 23 Este 0 -- -- 63
2019-05-20 20:00:00 11.8 0 Calma 9 Sudoeste 0.2 -- -- 82
2019-05-20 19:00:00 13.1 3 Oeste 12 Sudeste 0.4 -- -- 74
2019-05-20 18:00:00 12 3 Sur 19 Oeste 0.4 -- -- 77
2019-05-20 17:00:00 14.8 12 Sudoeste 25 Sudoeste 0 -- -- 48
2019-05-20 16:00:00 16.1 12 Sudoeste 26 Sudoeste 0 -- -- 43
2019-05-20 15:00:00 16 14 Sudoeste 23 Sudoeste 0 -- -- 38
2019-05-20 14:00:00 16.7 5 Sudoeste 25 Este 0 -- -- 36
2019-05-20 13:00:00 16.1 13 Este 27 Este 0 -- -- 37
2019-05-20 12:00:00 14.6 17 Nordeste 28 Nordeste 0 -- -- 40
2019-05-20 11:00:00 13.6 16 Nordeste 30 Nordeste 0 -- -- 42
2019-05-20 10:00:00 12.3 20 Nordeste 35 Este 0 -- -- 43
2019-05-20 09:00:00 10.2 5 Este 14 Este 0 -- -- 50
2019-05-20 08:00:00 3.6 2 Nordeste 6 Sudeste 0 -- -- 83
2019-05-20 07:00:00 2.9 0 Calma 5 Sudeste 0 -- -- 81
2019-05-20 06:00:00 4.9 0 Calma 16 Este 0 -- -- 70
2019-05-20 05:00:00 6.9 7 Nordeste 17 Nordeste 0 -- -- 58
2019-05-20 04:00:00 7.3 6 Nordeste 21 Nordeste 0 -- -- 57
2019-05-20 03:00:00 8.1 7 Nordeste 23 Este 0 -- -- 54
2019-05-20 02:00:00 5.6 2 Norte 11 Noroeste 0 -- -- 72
2019-05-20 01:00:00 6.4 2 Este 7 Norte 0 -- -- 75
2019-05-20 00:00:00 7.3 0 Calma 16 Nordeste 0 -- -- 74
2019-05-19 23:00:00 8.8 8 Este 13 Nordeste 0 -- -- 70
2019-05-19 22:00:00 9.2 7 Nordeste 17 Nordeste 0 -- -- 63
2019-05-19 21:00:00 10 10 Nordeste 24 Oeste 0.2 -- -- 57
2019-05-19 20:00:00 11.3 10 Noroeste 27 Oeste 0 -- -- 50
2019-05-19 19:00:00 12.1 12 Este 28 Nordeste 0 -- -- 46
2019-05-19 18:00:00 13.2 14 Nordeste 35 Nordeste 0 -- -- 43
2019-05-19 17:00:00 12.7 25 Nordeste 44 Nordeste 0 -- -- 48
2019-05-19 16:00:00 14.3 18 Nordeste 33 Este 0 -- -- 41
2019-05-19 15:00:00 12.5 16 Nordeste 32 Nordeste 0 -- -- 45
2019-05-19 14:00:00 14.4 14 Este 29 Nordeste 0 -- -- 41
2019-05-19 13:00:00 13.4 13 Este 37 Este 0 -- -- 40
2019-05-19 12:00:00 11.6 7 Este 23 Sur 0 -- -- 44
2019-05-19 11:00:00 10.3 8 Nordeste 25 Sur 0 -- -- 47
2019-05-19 10:00:00 7.6 2 Sudoeste 7 Sudoeste 0 -- -- 81
2019-05-19 09:00:00 5.3 3 Sudeste 5 Sur 0 -- -- 93
2019-05-19 08:00:00 2.8 3 Sudeste 7 Sudoeste 0 -- -- 100
2019-05-19 07:00:00 2.4 0 Calma 6 Noroeste 0 -- -- 99
2019-05-19 06:00:00 2.1 3 Este 5 Sudeste 0 -- -- 97
2019-05-19 05:00:00 3.2 0 Calma 4 Sudeste 0.2 -- -- 94
2019-05-19 04:00:00 4.5 0 Calma 4 Sudoeste 0 -- -- 96
2019-05-19 03:00:00 5 0 Calma 5 Noroeste 0 -- -- 94
2019-05-19 02:00:00 5.5 0 Calma 4 Sur 0 -- -- 92
2019-05-19 01:00:00 6.2 0 Calma 4 Sudoeste 0 -- -- 88
2019-05-19 00:00:00 6.6 0 Calma 4 Oeste 0 -- -- 86
2019-05-18 23:00:00 7 2 Sur 5 Sur 0 -- -- 80
2019-05-18 22:00:00 7.4 3 Sudoeste 8 Sudoeste 0 -- -- 77
2019-05-18 21:00:00 9.1 4 Oeste 22 Oeste 0 -- -- 64
2019-05-18 20:00:00 10.5 13 Sudoeste 26 Oeste 0 -- -- 56
2019-05-18 19:00:00 12.6 5 Nordeste 14 Este 0 -- -- 43
2019-05-18 18:00:00 12.4 8 Este 27 Nordeste 0.2 -- -- 49
2019-05-18 17:00:00 9.5 4 Oeste 13 Sudoeste 0 -- -- 62
2019-05-18 16:00:00 11.6 7 Oeste 23 Sudoeste 0 -- -- 53
2019-05-18 15:00:00 11.4 15 Sudoeste 30 Sudoeste 0 -- -- 49
2019-05-18 14:00:00 11.9 14 Sudoeste 32 Sudoeste 0 -- -- 46
2019-05-18 13:00:00 11.3 18 Sudoeste 31 Oeste 0.2 -- -- 46
2019-05-18 12:00:00 11.7 17 Sudoeste 25 Sudoeste 0 -- -- 53
2019-05-18 11:00:00 9.7 10 Sudoeste 26 Sudoeste 0 -- -- 60
2019-05-18 10:00:00 8.9 13 Oeste 19 Oeste 0 -- -- 65
2019-05-18 09:00:00 7.1 2 Oeste 4 Sudeste 0.2 -- -- 78
2019-05-18 08:00:00 5 0 Calma 4 Sudeste 0 -- -- 88
2019-05-18 07:00:00 5.3 0 Calma 5 Sudeste 0 -- -- 88
2019-05-18 06:00:00 5.4 2 Sur 4 Oeste 0.2 -- -- 87
2019-05-18 05:00:00 5.7 2 Sur 4 Sudoeste 0 -- -- 85
2019-05-18 04:00:00 6.4 2 Sudoeste 15 Oeste 0 -- -- 78
2019-05-18 03:00:00 6.9 8 Sudoeste 16 Sudoeste 0.2 -- -- 66
2019-05-18 02:00:00 8.1 3 Oeste 17 Nordeste 0 -- -- 63
2019-05-18 01:00:00 8.8 6 Nordeste 27 Este 0 -- -- 48
2019-05-18 00:00:00 8.7 11 Este 31 Nordeste 0.2 -- -- 50
2019-05-17 23:00:00 9.1 12 Nordeste 30 Nordeste 0 -- -- 48
2019-05-17 22:00:00 9.6 10 Nordeste 21 Nordeste 0.2 -- -- 48
2019-05-17 21:00:00 9.8 9 Nordeste 28 Este 0.2 -- -- 49
2019-05-17 20:00:00 10.2 16 Nordeste 31 Este 0 -- -- 50
2019-05-17 19:00:00 11.2 13 Nordeste 32 Este 0.4 -- -- 49
2019-05-17 18:00:00 12.1 12 Nordeste 31 Norte 0.2 -- -- 48
2019-05-17 17:00:00 12.4 14 Nordeste 33 Norte 0.4 -- -- 49
2019-05-17 16:00:00 13.5 18 Oeste 28 Sudoeste 0.2 -- -- 61
2019-05-17 15:00:00 12.4 17 Sudoeste 29 Sudoeste 0.6 -- -- 71
2019-05-17 14:00:00 11.6 19 Oeste 31 Sudoeste 0.4 -- -- 72
2019-05-17 13:00:00 10.6 17 Sudoeste 30 Sudoeste 0.6 -- -- 76
2019-05-17 12:00:00 10.9 18 Oeste 28 Oeste 0.6 -- -- 76
2019-05-17 11:00:00 8.8 12 Oeste 20 Oeste 0.4 -- -- 93
2019-05-17 10:00:00 8.3 8 Sudoeste 19 Oeste 0.4 -- -- 95
2019-05-17 09:00:00 7.9 10 Oeste 15 Oeste 0.4 -- -- 97
2019-05-17 08:00:00 7.7 2 Sudeste 6 Sudoeste 0.6 -- -- 98
2019-05-17 07:00:00 7.9 2 Sudoeste 8 Sudoeste 0.6 -- -- 96
2019-05-17 06:00:00 8.2 5 Sudoeste 45 Sudoeste 0.6 -- -- 91
2019-05-17 05:00:00 9.6 13 Oeste 26 Sudoeste 0.6 -- -- 89
2019-05-17 04:00:00 10.3 7 Oeste 19 Noroeste 0.8 -- -- 90
2019-05-17 03:00:00 10.4 13 Oeste 23 Oeste 1.2 -- -- 93
2019-05-17 02:00:00 11.1 2 Noroeste 27 Oeste 1.2 -- -- 92
2019-05-17 01:00:00 11.9 3 Este 26 Oeste 1.8 -- -- 91
2019-05-17 00:00:00 13.7 15 Sudoeste 31 Oeste 0 -- -- 73